Time;durP1;ratioP1;P1;durP2;ratioP2;P2;SDS_P1;SDS_P2;PMS_P1;PMS_P2;Temp;Humidity;BMP_temperature;BMP_pressure;BME280_temperature;BME280_humidity;BME280_pressure;Samples;Min_cycle;Max_cycle;Signal;HPM_P1;HPM_P2
2024/02/05 00:00:10;;;;;;;1.60;1.50;;;9.60;18.10;;;;;;4999541;28;20446;-82
2024/02/05 00:02:39;;;;;;;1.63;1.53;;;9.60;26.90;;;;;;5000828;28;20442;-80
2024/02/05 00:05:09;;;;;;;1.50;1.50;;;9.60;4.60;;;;;;4998523;28;21115;-80
2024/02/05 00:07:38;;;;;;;2.30;1.40;;;9.70;1.00;;;;;;4993466;28;20814;-82
2024/02/05 00:10:08;;;;;;;2.00;1.90;;;9.70;4.80;;;;;;4997001;28;21808;-80
2024/02/05 00:12:38;;;;;;;1.50;1.50;;;9.70;1.00;;;;;;4994489;28;20575;-81
2024/02/05 00:15:08;;;;;;;1.63;1.53;;;9.70;1.00;;;;;;4993974;28;20522;-81
2024/02/05 00:17:36;;;;;;;2.00;1.57;;;9.80;1.00;;;;;;4993544;28;20507;-81
2024/02/05 00:20:07;;;;;;;1.63;1.53;;;9.80;1.00;;;;;;4998390;28;20453;-82
2024/02/05 00:22:35;;;;;;;1.50;1.40;;;9.70;1.00;;;;;;5004983;28;20999;-83
2024/02/05 00:25:03;;;;;;;1.40;1.40;;;9.70;1.00;;;;;;4999797;28;20910;-80
2024/02/05 00:27:32;;;;;;;1.57;1.47;;;9.70;1.00;;;;;;4997230;28;20461;-81
2024/02/05 00:30:01;;;;;;;1.47;1.37;;;9.70;1.00;;;;;;4996598;28;20473;-80
2024/02/05 00:32:29;;;;;;;1.50;1.50;;;9.70;1.00;;;;;;5000926;28;20483;-81
2024/02/05 00:34:58;;;;;;;1.43;1.40;;;9.70;1.00;;;;;;4998793;28;20532;-79
2024/02/05 00:37:27;;;;;;;1.30;1.30;;;9.70;1.00;;;;;;4996781;28;20454;-79
2024/02/05 00:39:55;;;;;;;1.30;1.30;;;9.70;1.00;;;;;;5000455;28;20450;-80
2024/02/05 00:42:23;;;;;;;1.30;1.30;;;9.70;1.00;;;;;;5004130;28;20441;-80
2024/02/05 00:44:52;;;;;;;1.30;1.27;;;9.70;1.00;;;;;;4999543;28;20497;-82
2024/02/05 00:47:21;;;;;;;1.40;1.40;;;9.70;1.00;;;;;;4992803;28;20457;-80
2024/02/05 00:49:50;;;;;;;1.37;1.37;;;9.60;1.00;;;;;;4997563;28;20469;-81
2024/02/05 00:52:18;;;;;;;1.30;1.30;;;9.60;1.00;;;;;;5006322;28;20835;-83
2024/02/05 00:54:46;;;;;;;1.40;1.40;;;9.60;1.00;;;;;;5005870;28;21225;-82
2024/02/05 00:57:14;;;;;;;1.20;1.20;;;9.60;1.00;;;;;;5003910;28;20461;-83
2024/02/05 00:59:44;;;;;;;1.30;1.30;;;9.60;1.00;;;;;;5008394;28;20896;-80
2024/02/05 01:02:12;;;;;;;1.40;1.40;;;9.50;1.00;;;;;;5007952;28;20464;-81
2024/02/05 01:04:42;;;;;;;1.40;1.40;;;9.50;1.00;;;;;;5007658;28;20584;-82
2024/02/05 01:07:10;;;;;;;1.60;1.50;;;9.50;1.00;;;;;;5009867;28;20939;-82
2024/02/05 01:09:39;;;;;;;1.50;1.40;;;9.50;1.00;;;;;;5011307;28;20464;-83
2024/02/05 01:12:07;;;;;;;1.80;1.70;;;9.50;1.00;;;;;;5010603;28;20476;-81
2024/02/05 01:14:35;;;;;;;1.30;1.30;;;9.50;1.00;;;;;;5009335;28;20484;-82
2024/02/05 01:17:05;;;;;;;1.50;1.50;;;9.40;1.00;;;;;;5012928;28;20508;-81
2024/02/05 01:19:34;;;;;;;1.40;1.40;;;9.40;1.00;;;;;;5009870;28;20461;-81
2024/02/05 01:22:04;;;;;;;1.50;1.50;;;9.40;1.00;;;;;;5011691;28;20521;-81
2024/02/05 01:24:32;;;;;;;1.40;1.40;;;9.40;1.00;;;;;;5009142;28;21055;-83
2024/02/05 01:27:00;;;;;;;1.60;1.50;;;9.40;1.00;;;;;;5009570;28;20472;-82
2024/02/05 01:29:29;;;;;;;1.40;1.30;;;9.50;1.00;;;;;;5010064;28;20462;-81
2024/02/05 01:31:57;;;;;;;1.60;1.50;;;9.50;1.00;;;;;;5011456;28;20477;-82
2024/02/05 01:34:26;;;;;;;1.70;1.60;;;9.50;1.00;;;;;;4994223;28;20508;-82
2024/02/05 01:36:54;;;;;;;1.50;1.50;;;9.50;1.00;;;;;;5010395;28;20511;-82
2024/02/05 01:39:24;;;;;;;1.20;1.20;;;9.50;1.00;;;;;;5007667;28;20461;-82
2024/02/05 01:41:52;;;;;;;1.60;1.50;;;9.50;1.00;;;;;;5006819;28;20468;-82
2024/02/05 01:44:20;;;;;;;1.40;1.40;;;9.30;1.00;;;;;;5005761;28;20510;-79
2024/02/05 01:46:49;;;;;;;1.50;1.40;;;9.30;1.00;;;;;;5008595;28;20456;-83
2024/02/05 01:49:17;;;;;;;3.27;1.40;;;9.30;1.00;;;;;;5006652;28;20454;-79
2024/02/05 01:51:51;;;;;;;1.60;1.50;;;9.30;1.00;;;;;;5007282;28;20461;-80
2024/02/05 01:54:21;;;;;;;1.50;1.40;;;9.40;1.00;;;;;;4998879;28;20582;-79
2024/02/05 01:56:54;;;;;;;1.40;1.30;;;9.30;1.00;;;;;;5001892;28;20450;-81
2024/02/05 01:59:22;;;;;;;1.60;1.50;;;9.40;1.00;;;;;;4999359;28;20464;-80
2024/02/05 02:01:50;;;;;;;1.40;1.40;;;9.40;1.00;;;;;;5005593;28;20560;-81
2024/02/05 02:04:19;;;;;;;1.40;1.40;;;9.40;1.00;;;;;;5011286;28;20478;-80
2024/02/05 02:06:48;;;;;;;1.40;1.40;;;9.40;1.00;;;;;;5007118;28;20458;-82
2024/02/05 02:09:18;;;;;;;1.37;1.37;;;9.40;1.00;;;;;;5008640;28;20466;-83
2024/02/05 02:11:46;;;;;;;1.50;1.40;;;9.40;1.00;;;;;;5003429;28;20465;-81
2024/02/05 02:14:16;;;;;;;1.70;1.60;;;9.30;1.00;;;;;;4989259;28;20537;-81
2024/02/05 02:16:45;;;;;;;1.50;1.50;;;9.30;1.00;;;;;;5000128;28;20926;-83
2024/02/05 02:19:25;;;;;;;1.50;1.40;;;9.30;1.00;;;;;;5006474;28;20506;-80
2024/02/05 02:21:59;;;;;;;1.40;1.40;;;9.30;1.00;;;;;;5006589;28;20967;-80
2024/02/05 02:24:29;;;;;;;1.40;1.40;;;9.40;1.00;;;;;;5009148;28;20465;-80
2024/02/05 02:26:56;;;;;;;1.70;1.60;;;9.30;1.00;;;;;;5005318;28;21183;-80
2024/02/05 02:29:25;;;;;;;1.60;1.50;;;9.30;1.00;;;;;;5008844;28;20476;-82
2024/02/05 02:31:59;;;;;;;1.40;1.40;;;9.30;1.00;;;;;;5008436;28;20473;-81
2024/02/05 02:34:31;;;;;;;1.40;1.40;;;9.30;1.00;;;;;;5007941;28;20478;-82
2024/02/05 02:37:05;;;;;;;2.20;1.53;;;9.30;1.00;;;;;;4988686;28;20457;-81
2024/02/05 02:39:39;;;;;;;1.63;1.53;;;9.30;1.00;;;;;;5008402;28;20478;-80
2024/02/05 02:42:10;;;;;;;1.43;1.43;;;9.40;54.30;;;;;;5005993;28;20818;-80
2024/02/05 02:44:39;;;;;;;1.60;1.50;;;9.30;63.40;;;;;;5007445;28;20461;-82
2024/02/05 02:47:07;;;;;;;1.40;1.40;;;9.30;57.50;;;;;;5002740;28;20559;-82
2024/02/05 02:49:35;;;;;;;1.40;1.40;;;9.40;99.90;;;;;;5005337;28;20462;-83
2024/02/05 02:52:04;;;;;;;1.50;1.40;;;9.40;99.90;;;;;;5005716;28;20469;-82
2024/02/05 02:54:32;;;;;;;1.40;1.40;;;9.30;99.90;;;;;;5004815;28;21082;-82
2024/02/05 02:57:02;;;;;;;1.93;1.77;;;9.30;99.90;;;;;;5000990;28;20458;-80
2024/02/05 02:59:30;;;;;;;2.00;1.90;;;9.30;99.90;;;;;;4997554;28;20524;-83
2024/02/05 03:01:58;;;;;;;1.50;1.50;;;9.30;99.90;;;;;;5001715;28;21126;-82
2024/02/05 03:04:26;;;;;;;1.57;1.50;;;9.30;99.90;;;;;;5000485;28;20473;-81
2024/02/05 03:06:55;;;;;;;1.60;1.53;;;9.30;99.90;;;;;;5001345;28;21265;-80
2024/02/05 03:09:23;;;;;;;1.50;1.50;;;9.30;99.90;;;;;;4999782;28;20454;-80
2024/02/05 03:11:51;;;;;;;1.50;1.50;;;9.40;99.90;;;;;;4999799;28;21003;-80
2024/02/05 03:14:25;;;;;;;1.70;1.60;;;9.20;99.90;;;;;;5002746;28;20494;-80
2024/02/05 03:16:53;;;;;;;1.40;1.40;;;9.30;99.90;;;;;;5007442;28;20458;-81
2024/02/05 03:19:21;;;;;;;1.43;1.43;;;9.20;99.90;;;;;;5006081;28;20966;-84
2024/02/05 03:21:50;;;;;;;2.30;1.40;;;9.20;99.90;;;;;;5003261;28;20446;-80
2024/02/05 03:24:18;;;;;;;1.60;1.40;;;9.30;99.90;;;;;;5004314;28;20486;-82
2024/02/05 03:26:46;;;;;;;2.07;1.40;;;9.30;99.90;;;;;;5006268;28;20456;-79
2024/02/05 03:29:14;;;;;;;1.43;1.40;;;9.30;35.20;;;;;;5003221;28;20454;-81
2024/02/05 03:31:44;;;;;;;1.60;1.50;;;9.30;38.90;;;;;;5006994;28;20449;-80
2024/02/05 03:34:12;;;;;;;1.30;1.30;;;9.30;8.20;;;;;;5005287;28;21078;-79
2024/02/05 03:36:40;;;;;;;1.30;1.30;;;9.30;1.00;;;;;;5006569;28;20497;-79
2024/02/05 03:39:09;;;;;;;1.40;1.40;;;9.30;1.00;;;;;;5003310;28;21200;-79
2024/02/05 03:41:37;;;;;;;1.70;1.60;;;9.30;1.00;;;;;;5001671;28;20478;-80
2024/02/05 03:44:05;;;;;;;1.40;1.40;;;9.30;1.00;;;;;;5004685;28;20469;-82
2024/02/05 03:46:34;;;;;;;2.60;1.60;;;9.30;1.00;;;;;;5002458;28;20966;-80
2024/02/05 03:49:03;;;;;;;1.63;1.40;;;9.40;1.00;;;;;;5002603;28;20504;-81
2024/02/05 03:51:31;;;;;;;1.60;1.50;;;9.40;1.00;;;;;;5004040;28;20465;-83
2024/02/05 03:54:01;;;;;;;1.30;1.30;;;9.40;1.00;;;;;;4999438;28;21083;-82
2024/02/05 03:56:29;;;;;;;1.30;1.30;;;9.40;1.00;;;;;;4986490;28;20461;-80
2024/02/05 03:58:57;;;;;;;1.30;1.30;;;9.40;1.00;;;;;;5000715;28;20457;-81
2024/02/05 04:01:25;;;;;;;2.40;1.57;;;9.40;1.00;;;;;;5005501;28;20465;-79
2024/02/05 04:03:54;;;;;;;1.40;1.30;;;9.40;1.00;;;;;;5002303;28;20488;-81
2024/02/05 04:06:23;;;;;;;1.30;1.30;;;9.40;1.00;;;;;;5000477;28;20448;-79
2024/02/05 04:08:51;;;;;;;1.50;1.50;;;9.40;1.00;;;;;;5001135;28;20552;-78
2024/02/05 04:11:19;;;;;;;1.70;1.60;;;9.40;1.00;;;;;;5005184;28;21062;-79
2024/02/05 04:13:47;;;;;;;1.50;1.40;;;9.30;1.00;;;;;;5007211;28;20532;-78
2024/02/05 04:16:16;;;;;;;1.57;1.43;;;9.30;1.00;;;;;;5003105;28;20482;-79
2024/02/05 04:18:44;;;;;;;1.40;1.40;;;9.30;1.00;;;;;;5005499;28;20446;-80
2024/02/05 04:21:12;;;;;;;1.40;1.40;;;9.30;99.90;;;;;;5003790;28;20458;-82
2024/02/05 04:23:42;;;;;;;1.57;1.47;;;9.20;1.00;;;;;;5005539;28;20469;-81
2024/02/05 04:26:16;;;;;;;3.30;2.17;;;9.10;1.00;;;;;;5006799;28;20480;-79
2024/02/05 04:28:45;;;;;;;1.30;1.30;;;9.10;35.20;;;;;;5007584;28;20456;-80
2024/02/05 04:31:13;;;;;;;1.40;1.40;;;9.10;99.90;;;;;;4988596;28;20467;-80
2024/02/05 04:33:41;;;;;;;1.40;1.40;;;9.10;95.80;;;;;;5010822;28;20489;-79
2024/02/05 04:36:12;;;;;;;1.43;1.43;;;9.00;53.00;;;;;;5011039;28;20485;-79
2024/02/05 04:38:42;;;;;;;1.50;1.50;;;9.10;99.90;;;;;;5005543;28;20446;-79
2024/02/05 04:41:12;;;;;;;1.60;1.50;;;9.10;27.10;;;;;;5009299;28;20449;-80
2024/02/05 04:43:41;;;;;;;1.60;1.50;;;9.10;99.90;;;;;;5009918;28;20516;-81
2024/02/05 04:46:10;;;;;;;1.43;1.40;;;9.10;96.10;;;;;;5007125;28;20450;-80
2024/02/05 04:48:38;;;;;;;1.30;1.30;;;9.10;99.90;;;;;;5010007;28;20990;-82
2024/02/05 04:51:11;;;;;;;1.40;1.40;;;9.00;32.70;;;;;;5010832;28;20461;-79
2024/02/05 04:53:41;;;;;;;1.40;1.40;;;9.00;53.20;;;;;;5006529;28;20509;-80
2024/02/05 04:56:09;;;;;;;1.20;1.20;;;8.90;99.90;;;;;;5007570;28;20524;-80
2024/02/05 04:58:37;;;;;;;1.37;1.30;;;9.00;99.90;;;;;;5004858;28;20451;-81
2024/02/05 05:01:06;;;;;;;1.67;1.57;;;9.00;99.90;;;;;;5009536;28;20519;-85
2024/02/05 05:03:40;;;;;;;1.40;1.40;;;8.90;99.70;;;;;;5010773;28;20486;-80
2024/02/05 05:06:08;;;;;;;1.90;1.80;;;8.90;1.00;;;;;;5005637;28;20975;-81
2024/02/05 05:08:36;;;;;;;1.50;1.50;;;8.90;29.50;;;;;;5002663;28;20458;-82
2024/02/05 05:11:06;;;;;;;1.60;1.50;;;8.90;8.30;;;;;;5005704;28;20450;-80
2024/02/05 05:13:34;;;;;;;1.60;1.50;;;8.90;19.40;;;;;;5004832;28;20482;-81
2024/02/05 05:16:03;;;;;;;1.50;1.40;;;8.90;1.00;;;;;;5004097;28;20464;-80
2024/02/05 05:18:32;;;;;;;2.20;1.60;;;8.90;1.00;;;;;;5004813;28;20451;-82
2024/02/05 05:21:00;;;;;;;1.47;1.47;;;8.90;1.00;;;;;;5005170;28;20459;-80
2024/02/05 05:23:28;;;;;;;1.30;1.30;;;9.00;90.70;;;;;;4986003;28;20504;-80
2024/02/05 05:25:56;;;;;;;1.40;1.30;;;8.90;1.00;;;;;;5005342;28;20457;-81
2024/02/05 05:28:26;;;;;;;1.30;1.30;;;8.90;99.90;;;;;;5001877;28;20527;-83
2024/02/05 05:30:54;;;;;;;1.30;1.30;;;8.90;5.10;;;;;;5005854;28;20556;-84
2024/02/05 05:33:22;;;;;;;1.20;1.20;;;8.90;1.00;;;;;;5004022;28;20879;-83
2024/02/05 05:35:51;;;;;;;2.10;1.23;;;8.90;1.00;;;;;;5008527;28;20579;-82
2024/02/05 05:38:19;;;;;;;1.30;1.30;;;8.90;1.00;;;;;;5008761;28;20480;-78
2024/02/05 05:40:47;;;;;;;1.33;1.33;;;8.90;1.70;;;;;;5000651;28;20458;-81
2024/02/05 05:43:15;;;;;;;1.73;1.63;;;8.90;46.00;;;;;;5001089;28;20457;-79
2024/02/05 05:45:45;;;;;;;1.30;1.30;;;8.90;1.00;;;;;;4992386;28;20997;-78
2024/02/05 05:48:13;;;;;;;1.30;1.30;;;8.90;1.00;;;;;;4994410;28;20485;-78
2024/02/05 05:50:41;;;;;;;1.80;1.30;;;8.90;1.00;;;;;;4996274;28;20880;-81
2024/02/05 05:53:10;;;;;;;1.20;1.20;;;8.90;1.00;;;;;;4998323;28;20454;-78
2024/02/05 05:55:38;;;;;;;2.63;1.77;;;8.90;1.00;;;;;;4997799;28;21192;-80
2024/02/05 05:58:06;;;;;;;1.40;1.30;;;8.90;1.00;;;;;;4994916;28;21250;-80
2024/02/05 06:00:34;;;;;;;3.63;2.70;;;8.90;1.00;;;;;;4994554;28;20461;-80
2024/02/05 06:03:06;;;;;;;1.77;1.67;;;8.90;1.00;;;;;;4991845;28;20464;-79
2024/02/05 06:05:34;;;;;;;1.30;1.30;;;8.80;1.00;;;;;;4995692;28;21011;-79
2024/02/05 06:08:02;;;;;;;1.20;1.20;;;8.90;1.00;;;;;;4993041;28;20462;-78
2024/02/05 06:10:30;;;;;;;1.20;1.20;;;9.00;1.00;;;;;;4997655;28;20807;-79
2024/02/05 06:12:59;;;;;;;1.30;1.30;;;8.90;1.00;;;;;;5001150;28;20464;-78
2024/02/05 06:15:28;;;;;;;1.53;1.53;;;8.90;1.00;;;;;;4996241;28;20482;-82
2024/02/05 06:17:58;;;;;;;1.40;1.40;;;9.00;1.00;;;;;;4995344;28;20461;-80
2024/02/05 06:20:27;;;;;;;1.40;1.30;;;8.90;1.00;;;;;;5001674;28;20717;-80
2024/02/05 06:22:55;;;;;;;1.30;1.30;;;8.90;1.00;;;;;;4998684;28;20450;-78
2024/02/05 06:25:23;;;;;;;1.30;1.30;;;8.90;1.00;;;;;;4997257;28;20481;-79
2024/02/05 06:27:51;;;;;;;1.30;1.30;;;8.80;1.00;;;;;;4995259;28;21201;-80
2024/02/05 06:30:20;;;;;;;1.40;1.40;;;8.90;1.00;;;;;;4990878;28;21262;-79
2024/02/05 06:32:48;;;;;;;1.30;1.30;;;8.90;1.00;;;;;;4995044;28;20466;-79
2024/02/05 06:35:16;;;;;;;1.43;1.43;;;8.90;1.00;;;;;;4998827;28;20473;-78
2024/02/05 06:37:46;;;;;;;1.47;1.47;;;8.90;41.90;;;;;;4995515;28;20450;-78
2024/02/05 06:40:15;;;;;;;1.47;1.40;;;8.80;1.00;;;;;;4996986;28;20585;-79
2024/02/05 06:42:44;;;;;;;1.60;1.50;;;8.80;1.00;;;;;;4997368;28;20454;-78
2024/02/05 06:45:12;;;;;;;2.40;1.60;;;8.80;1.00;;;;;;4995678;28;20752;-77
2024/02/05 06:47:40;;;;;;;1.40;1.40;;;8.80;1.70;;;;;;4991573;28;20489;-79
2024/02/05 06:50:10;;;;;;;1.30;1.30;;;8.70;1.00;;;;;;4992809;28;20449;-79
2024/02/05 06:52:38;;;;;;;1.40;1.40;;;8.80;1.00;;;;;;4995373;28;20462;-78
2024/02/05 06:55:08;;;;;;;1.30;1.30;;;8.80;1.00;;;;;;4996358;28;20482;-78
2024/02/05 06:57:37;;;;;;;1.30;1.30;;;8.80;1.00;;;;;;4996603;28;20494;-80
2024/02/05 07:00:08;;;;;;;1.60;1.60;;;8.90;1.00;;;;;;4997221;28;20442;-79
2024/02/05 07:02:36;;;;;;;1.30;1.30;;;8.80;1.00;;;;;;4996783;28;20434;-79
2024/02/05 07:05:05;;;;;;;1.60;1.50;;;8.80;1.00;;;;;;4996723;28;20476;-79
2024/02/05 07:07:33;;;;;;;1.40;1.40;;;8.70;1.00;;;;;;4994017;28;20434;-79
2024/02/05 07:10:02;;;;;;;1.87;1.77;;;8.80;1.00;;;;;;4995374;28;20458;-79
2024/02/05 07:12:32;;;;;;;1.50;1.50;;;8.70;1.00;;;;;;4996376;28;20466;-78
2024/02/05 07:15:06;;;;;;;1.50;1.40;;;8.60;1.00;;;;;;4997426;28;20484;-79
2024/02/05 07:17:36;;;;;;;1.30;1.30;;;8.60;1.00;;;;;;4997568;28;20450;-78
2024/02/05 07:20:05;;;;;;;1.57;1.47;;;8.70;1.00;;;;;;4992089;28;20524;-78
2024/02/05 07:22:34;;;;;;;1.50;1.40;;;8.80;1.00;;;;;;4996207;28;20471;-79
2024/02/05 07:25:02;;;;;;;1.50;1.40;;;8.90;1.00;;;;;;4996078;28;20466;-79
2024/02/05 07:27:33;;;;;;;1.30;1.30;;;8.80;1.00;;;;;;4997058;28;20454;-79
2024/02/05 07:30:01;;;;;;;1.30;1.30;;;8.80;1.00;;;;;;4992926;28;20555;-79
2024/02/05 07:32:29;;;;;;;1.50;1.40;;;8.80;1.00;;;;;;4994896;28;20485;-79
2024/02/05 07:34:57;;;;;;;1.50;1.40;;;8.70;1.00;;;;;;4991805;28;20494;-79
2024/02/05 07:37:25;;;;;;;1.50;1.40;;;8.70;1.00;;;;;;4994414;28;20450;-79
2024/02/05 07:39:55;;;;;;;3.60;1.30;;;8.60;1.00;;;;;;4994666;28;20820;-78
2024/02/05 07:42:23;;;;;;;1.40;1.30;;;8.80;1.00;;;;;;4997477;28;20441;-78
2024/02/05 07:44:52;;;;;;;1.50;1.40;;;8.80;37.00;;;;;;4995795;28;20492;-80
2024/02/05 07:47:20;;;;;;;1.40;1.40;;;8.80;7.60;;;;;;4996561;28;20453;-78
2024/02/05 07:49:49;;;;;;;1.93;1.70;;;8.70;1.00;;;;;;4995275;28;20460;-80
2024/02/05 07:52:17;;;;;;;1.90;1.80;;;8.80;1.00;;;;;;4998033;28;20980;-79
2024/02/05 07:54:45;;;;;;;1.40;1.40;;;8.80;1.00;;;;;;4996312;28;20466;-78
2024/02/05 07:57:14;;;;;;;1.70;1.60;;;8.80;1.00;;;;;;4996682;28;20439;-78
2024/02/05 07:59:42;;;;;;;1.60;1.60;;;8.80;1.00;;;;;;4994362;28;20547;-78
2024/02/05 08:02:12;;;;;;;1.60;1.50;;;8.70;1.00;;;;;;4995771;28;20446;-78
2024/02/05 08:04:41;;;;;;;1.60;1.60;;;8.70;1.00;;;;;;4997105;28;20569;-80
2024/02/05 08:07:10;;;;;;;1.60;1.50;;;8.70;1.00;;;;;;4993888;28;20447;-78
2024/02/05 08:09:38;;;;;;;11.63;2.17;;;8.90;1.00;;;;;;4996107;28;20481;-78
2024/02/05 08:12:07;;;;;;;1.70;1.60;;;9.00;1.00;;;;;;4996741;28;20445;-78
2024/02/05 08:14:35;;;;;;;2.20;1.60;;;9.10;1.00;;;;;;4996135;28;20465;-78
2024/02/05 08:17:04;;;;;;;1.60;1.50;;;9.20;1.00;;;;;;4995649;28;20840;-79
2024/02/05 08:19:36;;;;;;;1.50;1.43;;;9.40;1.00;;;;;;4996457;28;20454;-78
2024/02/05 08:22:05;;;;;;;2.37;1.50;;;9.40;1.00;;;;;;4992936;28;20568;-78
2024/02/05 08:24:33;;;;;;;1.63;1.57;;;9.60;1.00;;;;;;4994339;28;20493;-78
2024/02/05 08:27:01;;;;;;;1.50;1.47;;;9.60;1.00;;;;;;4994944;28;20449;-77
2024/02/05 08:29:31;;;;;;;1.40;1.40;;;9.60;1.00;;;;;;4994957;28;20809;-78
2024/02/05 08:31:59;;;;;;;1.33;1.30;;;9.80;1.00;;;;;;4996120;28;20512;-78
2024/02/05 08:34:28;;;;;;;1.57;1.47;;;9.90;1.00;;;;;;4997261;28;20540;-78
2024/02/05 08:36:58;;;;;;;1.90;1.70;;;9.90;1.00;;;;;;4991025;28;20455;-79
2024/02/05 08:39:26;;;;;;;1.80;1.70;;;10.00;1.00;;;;;;4995055;28;20587;-78
2024/02/05 08:41:54;;;;;;;2.17;1.83;;;10.30;1.00;;;;;;4995955;28;20457;-79
2024/02/05 08:44:25;;;;;;;1.50;1.50;;;10.50;1.00;;;;;;4996857;28;20559;-79
2024/02/05 08:46:53;;;;;;;1.60;1.50;;;10.70;99.90;;;;;;4994839;28;20460;-79
2024/02/05 08:49:22;;;;;;;1.50;1.40;;;11.00;99.90;;;;;;4995861;28;20445;-80
2024/02/05 08:51:51;;;;;;;3.73;1.60;;;11.30;99.90;;;;;;4974534;28;20471;-80
2024/02/05 08:54:20;;;;;;;2.13;2.03;;;11.30;99.90;;;;;;4993224;28;20505;-80
2024/02/05 08:56:49;;;;;;;1.57;1.47;;;11.40;99.90;;;;;;4996481;28;20493;-80
2024/02/05 08:59:17;;;;;;;1.60;1.50;;;11.30;99.90;;;;;;4996425;28;20461;-79
2024/02/05 09:01:45;;;;;;;1.60;1.50;;;11.30;99.90;;;;;;4994371;28;20914;-80
2024/02/05 09:04:14;;;;;;;1.63;1.53;;;11.30;99.90;;;;;;4994365;28;20479;-79
2024/02/05 09:06:42;;;;;;;1.40;1.40;;;11.40;99.90;;;;;;4996762;28;20447;-79
2024/02/05 09:09:11;;;;;;;2.27;1.40;;;11.40;99.90;;;;;;4994597;28;20457;-79
2024/02/05 09:11:40;;;;;;;1.50;1.40;;;11.40;99.90;;;;;;4995905;28;20446;-78
2024/02/05 09:14:24;;;;;;;1.43;1.43;;;11.50;99.90;;;;;;4994975;28;20470;-80
2024/02/05 09:16:52;;;;;;;2.70;2.60;;;11.80;99.90;;;;;;4994995;28;20554;-78
2024/02/05 09:19:23;;;;;;;8.33;1.50;;;11.80;99.90;;;;;;4999091;28;20458;-80
2024/02/05 09:21:53;;;;;;;1.70;1.47;;;11.90;99.90;;;;;;5000021;28;20446;-79
2024/02/05 09:24:23;;;;;;;1.40;1.40;;;11.90;99.90;;;;;;4999769;28;20556;-80
2024/02/05 09:26:52;;;;;;;1.70;1.60;;;12.00;99.90;;;;;;5000345;28;20465;-78
2024/02/05 09:29:21;;;;;;;1.27;1.23;;;12.20;99.90;;;;;;4996936;28;20476;-79
2024/02/05 09:31:50;;;;;;;3.17;1.50;;;12.00;99.90;;;;;;4996158;28;20457;-79
2024/02/05 09:34:18;;;;;;;1.50;1.40;;;12.20;99.90;;;;;;4999255;28;20549;-79
2024/02/05 09:36:47;;;;;;;2.27;2.13;;;12.20;99.90;;;;;;5000745;28;20474;-79
2024/02/05 09:39:15;;;;;;;1.43;1.33;;;12.40;99.90;;;;;;4996932;28;21172;-79
2024/02/05 09:41:44;;;;;;;4.37;1.40;;;12.40;99.90;;;;;;5000034;28;20854;-79
2024/02/05 09:44:17;;;;;;;1.50;1.40;;;12.70;99.90;;;;;;4996958;28;20466;-80
2024/02/05 09:46:49;;;;;;;1.30;1.20;;;13.10;99.90;;;;;;4998448;28;20459;-79
2024/02/05 09:49:18;;;;;;;1.30;1.30;;;13.50;99.90;;;;;;5000128;28;20947;-79
2024/02/05 09:51:48;;;;;;;1.40;1.30;;;14.00;99.90;;;;;;4997029;28;20455;-79
2024/02/05 09:54:17;;;;;;;2.23;1.30;;;14.00;99.90;;;;;;4998253;28;20690;-79
2024/02/05 09:56:51;;;;;;;1.83;1.30;;;14.30;99.90;;;;;;4998041;28;20494;-79
2024/02/05 09:59:21;;;;;;;1.43;1.33;;;14.80;99.90;;;;;;4998277;28;20550;-79
2024/02/05 10:01:50;;;;;;;2.20;1.40;;;15.00;99.90;;;;;;4997390;28;20449;-80
2024/02/05 10:04:20;;;;;;;2.00;1.43;;;15.50;99.90;;;;;;4997443;28;21054;-80
2024/02/05 10:06:52;;;;;;;1.53;1.43;;;15.40;99.90;;;;;;4997260;28;20443;-80
2024/02/05 10:09:23;;;;;;;1.50;1.40;;;16.00;99.90;;;;;;4998078;28;20467;-79
2024/02/05 10:11:52;;;;;;;2.40;1.30;;;16.10;99.90;;;;;;4999453;28;20879;-79
2024/02/05 10:14:25;;;;;;;2.03;1.43;;;16.40;99.90;;;;;;5000595;28;20475;-81
2024/02/05 10:16:57;;;;;;;1.50;1.30;;;17.30;99.90;;;;;;4999645;28;20508;-79
2024/02/05 10:19:30;;;;;;;1.73;1.50;;;17.50;99.90;;;;;;4998500;28;20529;-78
2024/02/05 10:21:59;;;;;;;4.13;1.57;;;17.80;99.90;;;;;;4999247;28;20450;-79
2024/02/05 10:24:27;;;;;;;1.53;1.30;;;18.50;99.90;;;;;;4998815;28;20475;-78
2024/02/05 10:26:55;;;;;;;1.67;1.53;;;19.00;99.90;;;;;;4999106;28;20461;-79
2024/02/05 10:29:25;;;;;;;1.60;1.50;;;18.80;99.90;;;;;;4997216;28;20570;-80
2024/02/05 10:31:58;;;;;;;1.33;1.23;;;19.20;99.90;;;;;;4998462;28;21040;-79
2024/02/05 10:34:26;;;;;;;4.77;1.80;;;19.70;99.90;;;;;;4997652;28;20558;-80
2024/02/05 10:37:07;;;;;;;1.20;1.20;;;20.00;99.90;;;;;;4997268;28;20556;-79
2024/02/05 10:39:36;;;;;;;1.80;1.60;;;20.20;99.90;;;;;;4996510;28;20463;-80
2024/02/05 10:42:05;;;;;;;4.30;1.40;;;21.40;99.90;;;;;;4999076;28;20539;-79
2024/02/05 10:44:34;;;;;;;1.77;1.30;;;22.20;99.90;;;;;;4998538;28;20469;-79
2024/02/05 10:47:09;;;;;;;1.60;1.50;;;22.60;99.90;;;;;;5000528;28;20814;-79
2024/02/05 10:49:38;;;;;;;1.27;1.20;;;23.50;99.90;;;;;;4999248;28;20449;-79
2024/02/05 10:52:06;;;;;;;1.47;1.30;;;24.10;99.90;;;;;;5001724;28;20504;-80
2024/02/05 10:54:41;;;;;;;2.60;1.40;;;25.50;99.90;;;;;;5000041;28;20437;-80
2024/02/05 10:57:10;;;;;;;2.67;1.40;;;25.20;99.90;;;;;;5006310;28;20248;-82
2024/02/05 10:59:40;;;;;;;1.80;1.60;;;25.40;99.90;;;;;;5008057;28;20635;-82
2024/02/05 11:02:18;;;;;;;2.33;1.43;;;25.10;99.90;;;;;;5006440;28;20462;-81
2024/02/05 11:04:48;;;;;;;2.27;1.40;;;25.00;99.90;;;;;;5005682;28;20532;-83
2024/02/05 11:07:19;;;;;;;1.40;1.30;;;24.70;99.90;;;;;;5005549;28;20458;-81
2024/02/05 11:09:50;;;;;;;1.90;1.53;;;23.70;99.90;;;;;;5007805;28;20474;-82
2024/02/05 11:12:22;;;;;;;1.53;1.27;;;23.60;99.90;;;;;;5007523;28;20640;-82
2024/02/05 11:14:56;;;;;;;4.30;1.50;;;22.40;99.90;;;;;;5007047;28;20482;-82
2024/02/05 11:17:25;;;;;;;3.57;1.67;;;21.40;99.90;;;;;;5004888;28;20488;-82
2024/02/05 11:19:56;;;;;;;1.93;1.57;;;21.20;99.90;;;;;;5005019;28;20539;-81
2024/02/05 11:22:25;;;;;;;1.57;1.47;;;21.00;99.90;;;;;;5007439;28;20471;-82
2024/02/05 11:24:53;;;;;;;1.63;1.23;;;19.90;99.90;;;;;;5009104;28;20469;-82
2024/02/05 11:27:22;;;;;;;2.00;1.40;;;19.80;99.90;;;;;;5002491;28;21045;-82
2024/02/05 11:29:52;;;;;;;1.93;1.80;;;20.30;99.90;;;;;;5002217;28;20480;-82
2024/02/05 11:32:30;;;;;;;2.03;1.40;;;21.80;99.90;;;;;;5006702;28;20442;-83
2024/02/05 11:34:58;;;;;;;2.63;1.30;;;23.00;99.90;;;;;;5003618;28;20569;-83
2024/02/05 11:37:27;;;;;;;1.60;1.50;;;23.70;99.90;;;;;;5003950;28;20493;-82
2024/02/05 11:39:58;;;;;;;3.43;1.70;;;23.50;99.90;;;;;;5001217;28;21214;-84
2024/02/05 11:42:28;;;;;;;1.90;1.50;;;22.50;99.90;;;;;;5012223;28;20438;-84
2024/02/05 11:44:59;;;;;;;2.03;1.70;;;20.60;99.90;;;;;;5008352;28;20492;-83
2024/02/05 11:47:28;;;;;;;2.27;1.40;;;19.40;99.90;;;;;;5006484;28;20459;-82
2024/02/05 11:49:57;;;;;;;3.20;1.60;;;18.70;99.90;;;;;;5006801;28;20464;-82
2024/02/05 11:52:26;;;;;;;1.70;1.60;;;18.00;99.90;;;;;;5009797;28;20668;-82
2024/02/05 11:54:56;;;;;;;2.17;1.77;;;17.60;99.90;;;;;;5004167;28;20573;-83
2024/02/05 11:57:25;;;;;;;1.80;1.70;;;17.30;99.90;;;;;;5007289;28;20477;-83
2024/02/05 11:59:53;;;;;;;2.70;1.63;;;17.10;99.90;;;;;;5008332;28;20552;-82
2024/02/05 12:02:23;;;;;;;1.60;1.50;;;16.80;99.90;;;;;;5011904;28;20684;-81
2024/02/05 12:04:52;;;;;;;1.90;1.50;;;16.80;99.90;;;;;;5010525;28;20481;-80
2024/02/05 12:07:22;;;;;;;1.90;1.60;;;16.70;99.90;;;;;;5006684;28;21244;-81
2024/02/05 12:09:51;;;;;;;1.67;1.30;;;16.50;99.90;;;;;;5005948;28;20458;-82
2024/02/05 12:12:20;;;;;;;1.87;1.40;;;16.50;99.90;;;;;;5003075;28;20489;-83
2024/02/05 12:14:48;;;;;;;2.23;1.50;;;16.50;99.90;;;;;;5007921;28;20461;-81
2024/02/05 12:17:19;;;;;;;1.73;1.33;;;16.50;99.90;;;;;;5007463;28;20508;-83
2024/02/05 12:19:48;;;;;;;3.77;1.80;;;16.50;99.90;;;;;;5007805;28;20546;-83
2024/02/05 12:22:16;;;;;;;1.90;1.60;;;16.40;99.90;;;;;;5008381;28;20465;-82
2024/02/05 12:24:45;;;;;;;3.20;2.00;;;16.20;99.90;;;;;;5000431;28;20497;-82
2024/02/05 12:27:13;;;;;;;2.33;1.63;;;16.10;99.90;;;;;;5002167;28;21067;-82
2024/02/05 12:29:41;;;;;;;2.10;1.70;;;16.00;99.90;;;;;;5003839;28;20474;-82
2024/02/05 12:32:10;;;;;;;3.53;1.80;;;16.10;99.90;;;;;;5003535;28;20477;-81
2024/02/05 12:34:38;;;;;;;6.23;1.50;;;16.10;99.90;;;;;;5008085;28;20478;-82
2024/02/05 12:37:09;;;;;;;1.73;1.63;;;16.10;99.90;;;;;;5005215;28;21147;-81
2024/02/05 12:39:41;;;;;;;3.97;1.60;;;16.10;99.90;;;;;;5002929;28;20471;-79
2024/02/05 12:42:10;;;;;;;4.30;1.70;;;16.20;99.90;;;;;;4997515;28;20529;-78
2024/02/05 12:44:38;;;;;;;2.37;1.53;;;16.20;99.90;;;;;;4996946;28;20474;-78
2024/02/05 12:47:17;;;;;;;2.03;1.47;;;16.10;99.90;;;;;;4996078;28;21345;-78
2024/02/05 12:49:45;;;;;;;1.90;1.80;;;15.90;99.90;;;;;;5004582;28;20514;-81
2024/02/05 12:52:15;;;;;;;1.80;1.43;;;15.90;99.90;;;;;;5002562;28;20459;-82
2024/02/05 12:54:45;;;;;;;1.93;1.83;;;15.90;99.90;;;;;;5002653;28;21014;-81
2024/02/05 12:57:13;;;;;;;3.40;1.80;;;15.80;99.90;;;;;;5003732;28;20457;-81
2024/02/05 12:59:42;;;;;;;4.60;1.50;;;15.80;99.90;;;;;;5003806;28;20469;-82
2024/02/05 13:02:15;;;;;;;4.33;1.50;;;15.80;99.90;;;;;;5008903;28;20459;-84
2024/02/05 13:04:44;;;;;;;1.57;1.40;;;15.90;99.90;;;;;;5010735;28;20477;-80
2024/02/05 13:07:19;;;;;;;4.20;1.50;;;15.90;99.90;;;;;;5008357;28;20453;-81